aviador You're here:

KLXT Decoded Metar

LEES SUMMIT MUNI in MO, USA
Report Time2017-07-22 23:53:00
UTC Time2017-07-23 00:54:02
Flight Rules vfr VFR
WindCalm
Visibility9999 m
Phenomena:N/A
Clouds:N/A
Expected CloudBase > 5,200 ft AGL from Temp-Dew spread
CeilingNone
Temp37°C (ISA +24)
Dew Point24°C (47% RH)
Heat Index44.3°C
QNH1009 hPa
Density Alt4,239 ft
Elevation1,004 ft
Report Wrong Elevation
Raw Report
KLXT 222353Z AUTO 00000KT 10SM CLR 37/24 A2979 RMK AO2 SLP075
T03670244 10372 20344 56011 $=

Extra information for KLXT:More info

Metar Taf Metar & Taf Last 4 Metars F.Rules Stats Wind Profile Meteogram Temp Stats Airport Information Weather charts Add Link Nearby VenuesMetar ALERT Operation Metar Decoded Social comments

AIRNAV info for KLXT